Time;durP1;ratioP1;P1;durP2;ratioP2;P2;SDS_P1;SDS_P2;PMS_P1;PMS_P2;Temp;Humidity;BMP_temperature;BMP_pressure;BME280_temperature;BME280_humidity;BME280_pressure;Samples;Min_cycle;Max_cycle;Signal;HPM_P1;HPM_P2
2022/11/11 00:00:16;;;;;;;1999.90;999.90;;;5.50;99.90;;;;;;4994180;28;20473;-71
2022/11/11 00:02:42;;;;;;;1999.90;999.90;;;5.40;99.90;;;;;;4993312;28;20477;-72
2022/11/11 00:05:09;;;;;;;1999.90;999.90;;;5.40;99.90;;;;;;4993470;28;20457;-70
2022/11/11 00:07:36;;;;;;;1999.90;999.90;;;5.50;99.90;;;;;;4993623;28;20447;-70
2022/11/11 00:10:04;;;;;;;1999.90;999.90;;;5.50;99.90;;;;;;4993453;28;20460;-70
2022/11/11 00:12:30;;;;;;;1999.90;999.90;;;5.50;99.90;;;;;;4993403;28;20479;-70
2022/11/11 00:14:59;;;;;;;1999.90;999.90;;;5.50;99.90;;;;;;4993414;28;20945;-70
2022/11/11 00:25:39;;;;;;;1999.90;999.90;;;5.40;99.90;;;;;;4992900;28;20430;-70
2022/11/11 00:28:06;;;;;;;1999.90;999.90;;;5.40;99.90;;;;;;4993233;28;20450;-70
2022/11/11 00:30:34;;;;;;;1999.90;999.90;;;5.30;99.90;;;;;;4992353;28;20490;-69
2022/11/11 00:33:01;;;;;;;1999.90;999.90;;;5.30;99.90;;;;;;4992695;28;20868;-72
2022/11/11 00:38:44;;;;;;;1999.90;999.90;;;5.40;99.90;;;;;;4992876;28;20417;-72
2022/11/11 00:41:01;;;;;;;1999.90;999.90;;;5.40;99.90;;;;;;4992169;28;21015;-70
2022/11/11 00:43:31;;;;;;;1999.90;999.90;;;5.40;99.90;;;;;;4993046;28;20486;-71
2022/11/11 00:51:24;;;;;;;1999.90;999.90;;;5.40;99.90;;;;;;4972987;28;20483;-72
2022/11/11 00:53:51;;;;;;;1999.90;999.90;;;5.40;99.90;;;;;;4972824;28;20480;-70
2022/11/11 00:56:18;;;;;;;1999.90;999.90;;;5.40;99.90;;;;;;4973368;28;20968;-71
2022/11/11 00:58:45;;;;;;;1999.90;999.90;;;5.40;99.90;;;;;;4972759;28;20448;-70
2022/11/11 01:01:13;;;;;;;1999.90;999.90;;;5.40;99.90;;;;;;4972368;28;20514;-70
2022/11/11 01:03:40;;;;;;;1999.90;999.90;;;5.30;99.90;;;;;;4972718;28;20471;-69
2022/11/11 01:06:07;;;;;;;1999.90;999.90;;;5.20;99.90;;;;;;4973264;28;20447;-70
2022/11/11 01:08:34;;;;;;;1999.90;999.90;;;5.30;99.90;;;;;;4972765;28;20447;-69
2022/11/11 01:11:00;;;;;;;1999.90;999.90;;;5.20;99.90;;;;;;4972832;28;21001;-70
2022/11/11 01:13:29;;;;;;;1999.90;999.90;;;5.20;99.90;;;;;;4972785;28;20992;-70
2022/11/11 01:16:00;;;;;;;1999.90;999.90;;;5.10;99.90;;;;;;4972477;28;20451;-70
2022/11/11 01:18:28;;;;;;;1999.90;999.90;;;5.10;99.90;;;;;;4973230;28;20448;-71
2022/11/11 01:21:00;;;;;;;1999.90;999.90;;;5.00;99.90;;;;;;4972359;28;20877;-70
2022/11/11 01:23:27;;;;;;;1999.90;999.90;;;5.00;99.90;;;;;;4972552;28;20471;-71
2022/11/11 01:25:54;;;;;;;1999.90;999.90;;;5.10;99.90;;;;;;4972290;28;20447;-70
2022/11/11 01:28:21;;;;;;;1999.90;999.90;;;5.10;99.90;;;;;;4972915;28;20454;-70
2022/11/11 01:30:48;;;;;;;1999.90;999.90;;;5.30;99.90;;;;;;4972298;28;20520;-70
2022/11/11 01:33:14;;;;;;;1999.90;999.90;;;5.30;99.90;;;;;;4972294;28;20483;-70
2022/11/11 01:35:42;;;;;;;1999.90;999.90;;;5.20;99.90;;;;;;4972600;28;20462;-70
2022/11/11 01:38:10;;;;;;;1999.90;999.90;;;5.20;99.90;;;;;;4971933;28;20463;-70
2022/11/11 01:40:41;;;;;;;1999.90;999.90;;;5.10;99.90;;;;;;4972430;28;20443;-71
2022/11/11 01:43:18;;;;;;;1999.90;999.90;;;5.10;99.90;;;;;;4971798;28;20502;-70
2022/11/11 01:45:48;;;;;;;1999.90;999.90;;;5.00;99.90;;;;;;4972364;28;20447;-72
2022/11/11 01:51:10;;;;;;;1999.90;999.90;;;5.20;99.90;;;;;;4971848;28;21000;-71
2022/11/11 01:53:37;;;;;;;1999.90;999.90;;;5.20;99.90;;;;;;4971330;28;20486;-71
2022/11/11 01:56:05;;;;;;;1999.90;999.90;;;5.20;99.90;;;;;;4972127;28;20450;-70
2022/11/11 01:58:31;;;;;;;1999.90;999.90;;;5.20;99.90;;;;;;4972043;28;20452;-71
2022/11/11 02:00:59;;;;;;;1999.90;999.90;;;5.20;99.90;;;;;;4971848;28;20448;-70
2022/11/11 02:03:27;;;;;;;1999.90;999.90;;;5.20;99.90;;;;;;4978124;28;20467;-72
2022/11/11 02:05:56;;;;;;;1999.90;999.90;;;5.20;99.90;;;;;;4993330;28;20970;-72
2022/11/11 02:08:33;;;;;;;1999.90;999.90;;;5.10;99.90;;;;;;4972198;28;20950;-70
2022/11/11 02:11:02;;;;;;;1999.90;999.90;;;5.10;99.90;;;;;;4971624;28;20483;-69
2022/11/11 02:16:15;;;;;;;1999.90;999.90;;;5.20;99.90;;;;;;4971611;28;20426;-69
2022/11/11 02:18:43;;;;;;;1999.90;999.90;;;5.00;99.90;;;;;;4972120;28;20455;-72
2022/11/11 02:21:14;;;;;;;1999.90;999.90;;;4.90;99.90;;;;;;4971415;28;20452;-70
2022/11/11 02:23:48;;;;;;;1999.90;999.90;;;4.80;99.90;;;;;;4971410;28;20490;-69
2022/11/11 02:26:17;;;;;;;1999.90;999.90;;;4.90;99.90;;;;;;4971669;28;20447;-70
2022/11/11 02:28:45;;;;;;;1999.90;999.90;;;4.80;99.90;;;;;;4971259;28;20514;-69
2022/11/11 02:31:12;;;;;;;1999.90;999.90;;;4.80;99.90;;;;;;4971440;28;20483;-70
2022/11/11 02:33:39;;;;;;;1999.90;999.90;;;4.90;99.90;;;;;;4970924;28;20463;-71
2022/11/11 02:36:09;;;;;;;1999.90;999.90;;;4.80;99.90;;;;;;4971486;28;20448;-69
2022/11/11 02:38:36;;;;;;;1999.90;999.90;;;4.80;99.90;;;;;;4970969;28;20456;-69
2022/11/11 02:43:49;;;;;;;1999.90;999.90;;;4.70;99.90;;;;;;4970753;28;20973;-70
2022/11/11 02:46:16;;;;;;;1999.90;999.90;;;4.70;99.90;;;;;;4971409;28;20454;-70
2022/11/11 02:48:42;;;;;;;1999.90;999.90;;;4.60;99.90;;;;;;4971153;28;21029;-69
2022/11/11 02:51:09;;;;;;;1999.90;999.90;;;4.80;99.90;;;;;;4970493;28;20482;-69
2022/11/11 02:53:36;;;;;;;1999.90;999.90;;;4.80;99.90;;;;;;4970877;28;20479;-70
2022/11/11 02:56:03;;;;;;;1999.90;999.90;;;4.80;99.90;;;;;;4970944;28;20455;-69
2022/11/11 02:58:30;;;;;;;1999.90;999.90;;;4.80;99.90;;;;;;4971279;28;20451;-71
2022/11/11 03:00:58;;;;;;;1999.90;999.90;;;4.80;99.90;;;;;;4970455;28;20463;-70
2022/11/11 03:03:25;;;;;;;1999.90;999.90;;;4.90;99.90;;;;;;4970832;28;20467;-69
2022/11/11 03:05:52;;;;;;;1999.90;999.90;;;4.90;99.90;;;;;;4970679;28;20458;-71
2022/11/11 03:08:18;;;;;;;1999.90;999.90;;;4.80;99.90;;;;;;4970798;28;20953;-70
2022/11/11 03:10:45;;;;;;;1999.90;999.90;;;4.80;99.90;;;;;;4971010;28;20970;-70
2022/11/11 03:13:12;;;;;;;1999.90;999.90;;;4.70;99.90;;;;;;4970277;28;20494;-70
2022/11/11 03:15:39;;;;;;;1999.90;999.90;;;4.70;99.90;;;;;;4971215;28;20448;-70
2022/11/11 03:18:06;;;;;;;1999.90;999.90;;;4.60;99.90;;;;;;4970477;28;20459;-69
2022/11/11 03:23:17;;;;;;;1999.90;999.90;;;4.70;99.90;;;;;;4970971;28;20510;-70
2022/11/11 03:25:46;;;;;;;1999.90;999.90;;;4.70;99.90;;;;;;4974998;28;20458;-70
2022/11/11 03:28:14;;;;;;;1999.90;999.90;;;4.70;99.90;;;;;;4974602;28;20454;-70
2022/11/11 03:30:42;;;;;;;1999.90;999.90;;;4.60;99.90;;;;;;4974733;28;20984;-71
2022/11/11 03:33:11;;;;;;;1999.90;999.90;;;4.70;99.90;;;;;;4974531;28;20880;-70
2022/11/11 03:35:39;;;;;;;1999.90;999.90;;;4.60;99.90;;;;;;4974326;28;20833;-69
2022/11/11 03:38:22;;;;;;;1999.90;999.90;;;4.70;99.90;;;;;;4974783;28;20447;-69
2022/11/11 03:40:50;;;;;;;1999.90;999.90;;;4.70;99.90;;;;;;4974013;28;20510;-69
2022/11/11 03:43:19;;;;;;;1999.90;999.90;;;4.80;99.90;;;;;;4974247;28;20468;-70
2022/11/11 03:45:46;;;;;;;1999.90;999.90;;;4.80;99.90;;;;;;4973923;28;20451;-70
2022/11/11 03:48:14;;;;;;;1999.90;999.90;;;4.80;99.90;;;;;;4974571;28;20451;-70
2022/11/11 03:50:41;;;;;;;1999.90;999.90;;;4.90;99.90;;;;;;4974385;28;20451;-70
2022/11/11 03:53:08;;;;;;;1999.90;999.90;;;4.90;99.90;;;;;;4973832;28;20526;-71
2022/11/11 03:55:35;;;;;;;1999.90;999.90;;;4.90;99.90;;;;;;4974383;28;20450;-70
2022/11/11 03:58:02;;;;;;;1999.90;999.90;;;5.00;99.90;;;;;;4973793;28;20447;-70
2022/11/11 04:00:29;;;;;;;1999.90;999.90;;;4.90;99.90;;;;;;4974430;28;20825;-71
2022/11/11 04:11:26;;;;;;;1999.90;999.90;;;4.50;99.90;;;;;;4974084;28;20539;-70
2022/11/11 04:16:39;;;;;;;1999.90;999.90;;;4.60;99.90;;;;;;4985884;28;20435;-72
2022/11/11 04:21:52;;;;;;;1999.90;999.90;;;4.80;99.90;;;;;;4974156;28;20423;-69
2022/11/11 04:27:06;;;;;;;1999.90;999.90;;;4.60;99.90;;;;;;4974135;28;20427;-69
2022/11/11 04:29:32;;;;;;;1999.90;999.90;;;4.60;99.90;;;;;;4973780;28;20889;-70
2022/11/11 04:34:47;;;;;;;1999.90;999.90;;;4.60;99.90;;;;;;4972741;28;20450;-70
2022/11/11 04:37:17;;;;;;;1999.90;999.90;;;4.60;99.90;;;;;;4972959;28;20444;-71
2022/11/11 04:42:30;;;;;;;1999.90;999.90;;;4.60;99.90;;;;;;4972688;28;20431;-70
2022/11/11 04:47:53;;;;;;;1999.90;999.90;;;4.60;99.90;;;;;;4973043;28;20438;-69
2022/11/11 04:50:20;;;;;;;1999.90;999.90;;;4.60;99.90;;;;;;4973541;28;20467;-70
2022/11/11 04:52:49;;;;;;;1999.90;999.90;;;4.60;99.90;;;;;;4972545;28;20497;-70
2022/11/11 04:58:00;;;;;;;1999.90;999.90;;;4.60;99.90;;;;;;4973332;28;20833;-70
2022/11/11 05:00:27;;;;;;;1999.90;999.90;;;4.60;99.90;;;;;;4973152;28;20453;-71
2022/11/11 05:11:05;;;;;;;1999.90;999.90;;;4.60;99.90;;;;;;4972500;28;20431;-70
2022/11/11 05:21:49;;;;;;;1999.90;999.90;;;4.50;99.90;;;;;;4972155;28;20858;-70
2022/11/11 05:27:01;;;;;;;1999.90;999.90;;;4.50;99.90;;;;;;4972458;28;20443;-70
2022/11/11 05:29:28;;;;;;;1999.90;999.90;;;4.50;99.90;;;;;;4979780;28;20456;-72
2022/11/11 05:31:55;;;;;;;1999.90;999.90;;;4.50;99.90;;;;;;4988726;28;20482;-71
2022/11/11 05:34:22;;;;;;;1999.90;999.90;;;4.50;99.90;;;;;;4989380;28;20466;-71
2022/11/11 05:36:49;;;;;;;1999.90;999.90;;;4.50;99.90;;;;;;4991933;28;20855;-71
2022/11/11 05:39:17;;;;;;;1999.90;999.90;;;4.60;99.90;;;;;;4992083;28;20819;-70
2022/11/11 05:41:44;;;;;;;1999.90;999.90;;;4.60;99.90;;;;;;4991165;28;20949;-69
2022/11/11 05:44:10;;;;;;;1999.90;999.90;;;4.70;99.90;;;;;;4992521;28;20981;-70
2022/11/11 05:46:37;;;;;;;1999.90;999.90;;;4.80;99.90;;;;;;4991236;28;20450;-71
2022/11/11 05:49:16;;;;;;;1999.90;999.90;;;4.70;99.90;;;;;;4991568;28;20463;-70
2022/11/11 05:51:43;;;;;;;1999.90;999.90;;;4.70;99.90;;;;;;4991054;28;20203;-72
2022/11/11 05:54:10;;;;;;;1999.90;999.90;;;4.70;99.90;;;;;;4991824;28;20485;-70
2022/11/11 05:56:38;;;;;;;1999.90;999.90;;;4.70;99.90;;;;;;4991276;28;20541;-69
2022/11/11 05:59:05;;;;;;;1999.90;999.90;;;4.70;99.90;;;;;;4988362;28;20598;-69
2022/11/11 06:01:32;;;;;;;1999.90;999.90;;;4.70;99.90;;;;;;4986584;28;20545;-70
2022/11/11 06:03:59;;;;;;;1999.90;999.90;;;4.80;99.90;;;;;;4979490;28;20550;-70
2022/11/11 06:06:26;;;;;;;1999.90;999.90;;;4.80;99.90;;;;;;4985563;28;20451;-73
2022/11/11 06:08:53;;;;;;;1999.90;999.90;;;4.80;99.90;;;;;;4980421;28;20443;-70
2022/11/11 06:11:20;;;;;;;1999.90;999.90;;;4.80;99.90;;;;;;4988275;28;20458;-69
2022/11/11 06:13:48;;;;;;;1999.90;999.90;;;4.80;99.90;;;;;;4985129;28;20487;-70
2022/11/11 06:16:15;;;;;;;1999.90;999.90;;;4.80;99.90;;;;;;4983591;28;20455;-71
2022/11/11 06:18:42;;;;;;;1999.90;999.90;;;4.80;99.90;;;;;;4989398;28;20458;-71
2022/11/11 06:21:09;;;;;;;1999.90;999.90;;;4.80;99.90;;;;;;4988363;28;20988;-71
2022/11/11 06:23:36;;;;;;;1999.90;999.90;;;4.80;99.90;;;;;;4989659;28;20462;-70
2022/11/11 06:26:12;;;;;;;1999.90;999.90;;;4.80;99.90;;;;;;4988925;28;20844;-71
2022/11/11 06:28:40;;;;;;;1999.90;999.90;;;4.80;99.90;;;;;;5006911;28;20521;-71
2022/11/11 06:31:08;;;;;;;1999.90;999.90;;;4.70;99.90;;;;;;4997983;28;20949;-73
2022/11/11 06:33:36;;;;;;;1999.90;999.90;;;4.70;99.90;;;;;;4991151;28;20497;-70
2022/11/11 06:36:03;;;;;;;1999.90;999.90;;;4.70;99.90;;;;;;4991306;28;20453;-73
2022/11/11 06:38:31;;;;;;;1999.90;999.90;;;4.80;99.90;;;;;;4990962;28;20445;-69
2022/11/11 06:40:58;;;;;;;1999.90;999.90;;;4.80;99.90;;;;;;4990819;28;20450;-71
2022/11/11 06:43:25;;;;;;;1999.90;999.90;;;4.70;99.90;;;;;;4990173;28;20466;-69
2022/11/11 06:45:53;;;;;;;1999.90;999.90;;;4.70;99.90;;;;;;4990898;28;20446;-72
2022/11/11 06:48:21;;;;;;;1999.90;999.90;;;4.80;99.90;;;;;;4990021;28;20968;-72
2022/11/11 06:50:48;;;;;;;1999.90;999.90;;;4.80;99.90;;;;;;4990688;28;20962;-71
2022/11/11 06:53:17;;;;;;;1999.90;999.90;;;4.80;99.90;;;;;;4989962;28;20494;-71
2022/11/11 06:55:44;;;;;;;1999.90;999.90;;;4.80;99.90;;;;;;4990477;28;20477;-72
2022/11/11 06:58:12;;;;;;;1999.90;999.90;;;4.90;99.90;;;;;;4989861;28;20443;-70
2022/11/11 07:00:40;;;;;;;1999.90;999.90;;;4.90;99.90;;;;;;4990019;28;20453;-71
2022/11/11 07:03:07;;;;;;;1999.90;999.90;;;4.90;99.90;;;;;;4992546;28;20463;-68
2022/11/11 07:05:35;;;;;;;1999.90;999.90;;;5.00;99.90;;;;;;4990165;28;20442;-71
2022/11/11 07:08:03;;;;;;;1999.90;999.90;;;5.00;99.90;;;;;;4990551;28;20458;-72
2022/11/11 07:10:31;;;;;;;1999.90;999.90;;;5.10;99.90;;;;;;4990039;28;20454;-71
2022/11/11 07:12:57;;;;;;;1999.90;999.90;;;5.10;99.90;;;;;;4990139;28;20509;-70
2022/11/11 07:15:24;;;;;;;1999.90;999.90;;;5.20;99.90;;;;;;4990174;28;20469;-71
2022/11/11 07:17:51;;;;;;;1999.90;999.90;;;5.30;99.90;;;;;;4990521;28;20453;-70
2022/11/11 07:20:18;;;;;;;1999.90;999.90;;;5.30;99.90;;;;;;4990438;28;20447;-70
2022/11/11 07:22:46;;;;;;;1999.90;999.90;;;5.30;99.90;;;;;;4989552;28;20462;-70
2022/11/11 07:25:13;;;;;;;1999.90;999.90;;;5.40;99.90;;;;;;4990254;28;20526;-70
2022/11/11 07:27:40;;;;;;;1999.90;999.90;;;5.40;99.90;;;;;;4989808;28;20453;-71
2022/11/11 07:30:08;;;;;;;1999.90;999.90;;;5.50;99.90;;;;;;4990170;28;20447;-72
2022/11/11 07:32:36;;;;;;;1999.90;999.90;;;5.60;99.90;;;;;;4989290;28;20712;-72
2022/11/11 07:35:03;;;;;;;1999.90;999.90;;;5.60;99.90;;;;;;4990286;28;20944;-68
2022/11/11 07:37:31;;;;;;;1999.90;999.90;;;5.70;99.90;;;;;;4989761;28;20443;-70
2022/11/11 07:39:59;;;;;;;1999.90;999.90;;;5.80;99.90;;;;;;4990604;28;20458;-71
2022/11/11 07:42:26;;;;;;;1999.90;999.90;;;5.80;99.90;;;;;;4989804;28;20443;-72
2022/11/11 07:44:52;;;;;;;1999.90;999.90;;;6.00;99.90;;;;;;4989840;28;20447;-70
2022/11/11 07:47:19;;;;;;;1999.90;999.90;;;6.10;99.90;;;;;;4990139;28;20447;-71
2022/11/11 07:49:46;;;;;;;1999.90;999.90;;;6.20;99.90;;;;;;4989794;28;20450;-71
2022/11/11 07:52:13;;;;;;;1999.90;999.90;;;6.30;99.90;;;;;;4989247;28;20458;-70
2022/11/11 07:54:39;;;;;;;1999.90;999.90;;;6.30;99.90;;;;;;4989771;28;20450;-70
2022/11/11 07:57:07;;;;;;;1999.90;999.90;;;6.30;99.90;;;;;;4990121;28;20438;-70
2022/11/11 07:59:34;;;;;;;1999.90;999.90;;;6.40;99.90;;;;;;4989653;28;20442;-70
2022/11/11 08:02:01;;;;;;;1999.90;999.90;;;6.50;99.90;;;;;;4989785;28;20457;-71
2022/11/11 08:04:28;;;;;;;1999.90;999.90;;;6.60;99.90;;;;;;4989852;28;20458;-70
2022/11/11 08:06:54;;;;;;;1999.90;999.90;;;6.70;99.90;;;;;;4989471;28;20450;-69
2022/11/11 08:09:21;;;;;;;1999.90;999.90;;;6.60;99.90;;;;;;4990502;28;20473;-72
2022/11/11 08:14:34;;;;;;;1999.90;999.90;;;6.80;99.90;;;;;;4993224;28;20826;-70
2022/11/11 08:17:00;;;;;;;1999.90;999.90;;;6.90;99.90;;;;;;4992995;28;20443;-70
2022/11/11 08:19:27;;;;;;;1999.90;999.90;;;6.90;99.90;;;;;;4993347;28;20523;-72
2022/11/11 08:21:54;;;;;;;1999.90;999.90;;;6.90;99.90;;;;;;4992560;28;20453;-69
2022/11/11 08:24:21;;;;;;;1999.90;999.90;;;6.90;99.90;;;;;;4993380;28;20459;-70
2022/11/11 08:26:49;;;;;;;1999.90;999.90;;;6.90;99.90;;;;;;4993000;28;20455;-71
2022/11/11 08:29:16;;;;;;;1999.90;999.90;;;6.90;99.90;;;;;;4992882;28;20538;-72
2022/11/11 08:31:44;;;;;;;1999.90;999.90;;;7.00;99.90;;;;;;4988350;28;20454;-73
2022/11/11 08:34:11;;;;;;;1999.90;999.90;;;7.00;99.90;;;;;;4990520;28;20478;-70
2022/11/11 08:36:38;;;;;;;1999.90;999.90;;;7.00;99.90;;;;;;4992697;28;20443;-70
2022/11/11 08:39:05;;;;;;;1999.90;999.90;;;7.00;99.90;;;;;;4994280;28;20447;-71
2022/11/11 08:41:32;;;;;;;1999.90;999.90;;;7.00;99.90;;;;;;5004413;28;20438;-74
2022/11/11 08:43:59;;;;;;;1999.90;999.90;;;7.00;99.90;;;;;;5001027;28;20465;-72
2022/11/11 08:46:27;;;;;;;1999.90;999.90;;;7.00;99.90;;;;;;4992828;28;21127;-70
2022/11/11 08:48:55;;;;;;;1999.90;999.90;;;7.10;99.90;;;;;;4992654;28;20458;-69
2022/11/11 08:51:22;;;;;;;1999.90;999.90;;;7.20;99.90;;;;;;4991798;28;20821;-70
2022/11/11 08:53:48;;;;;;;1999.90;999.90;;;7.20;99.90;;;;;;4991641;28;20910;-70
2022/11/11 08:56:15;;;;;;;1999.90;999.90;;;7.30;99.90;;;;;;4988853;28;20459;-72
2022/11/11 08:58:42;;;;;;;1999.90;999.90;;;7.40;99.90;;;;;;4992320;28;20834;-70
2022/11/11 09:01:12;;;;;;;1999.90;999.90;;;7.50;99.90;;;;;;4989697;28;20443;-71
2022/11/11 09:03:42;;;;;;;1999.90;999.90;;;7.60;99.90;;;;;;4991813;28;20489;-71
2022/11/11 09:06:11;;;;;;;1999.90;999.90;;;7.80;99.90;;;;;;4992349;28;21000;-70
2022/11/11 09:08:37;;;;;;;1999.90;999.90;;;8.00;99.90;;;;;;4989983;28;21223;-71
2022/11/11 09:11:04;;;;;;;1999.90;999.90;;;8.10;99.90;;;;;;4991524;28;20442;-69
2022/11/11 09:13:31;;;;;;;1999.90;999.90;;;8.30;99.90;;;;;;4990893;28;20486;-69
2022/11/11 09:15:58;;;;;;;1999.90;999.90;;;8.50;99.90;;;;;;4988530;28;20458;-73
2022/11/11 09:18:25;;;;;;;1999.90;999.90;;;8.70;99.90;;;;;;4990813;28;21140;-70
2022/11/11 09:20:52;;;;;;;1999.90;999.90;;;8.80;99.90;;;;;;4989918;28;20439;-71
2022/11/11 09:23:20;;;;;;;1999.90;999.90;;;9.00;99.90;;;;;;4990079;28;21014;-70
2022/11/11 09:25:47;;;;;;;1999.90;999.90;;;9.20;99.90;;;;;;4991883;28;20449;-70
2022/11/11 09:28:14;;;;;;;1999.90;999.90;;;9.40;99.90;;;;;;4976670;28;20463;-72
2022/11/11 09:30:41;;;;;;;1999.90;999.90;;;9.50;99.90;;;;;;4989679;28;20483;-71
2022/11/11 09:33:08;;;;;;;1999.90;999.90;;;9.80;99.90;;;;;;4991560;28;20483;-70
2022/11/11 09:35:35;;;;;;;1999.90;999.90;;;10.20;99.90;;;;;;4991371;28;20447;-70
2022/11/11 09:38:02;;;;;;;1999.90;999.90;;;10.50;99.90;;;;;;4989326;28;20447;-70
2022/11/11 09:40:46;;;;;;;1999.90;999.90;;;10.90;99.90;;;;;;4991997;28;20533;-70
2022/11/11 09:43:22;;;;;;;1999.90;999.90;;;11.30;99.90;;;;;;4993941;28;21001;-71
2022/11/11 09:45:59;;;;;;;1999.90;999.90;;;11.40;99.90;;;;;;4989482;28;20824;-69
2022/11/11 09:48:38;;;;;;;1999.90;999.90;;;11.60;99.90;;;;;;4991402;28;20450;-70
2022/11/11 09:51:11;;;;;;;1999.90;999.90;;;11.70;99.90;;;;;;4990686;28;20875;-70
2022/11/11 09:53:44;;;;;;;1999.90;999.90;;;12.00;99.90;;;;;;4988730;28;20486;-71
2022/11/11 09:56:17;;;;;;;1999.90;999.90;;;12.30;99.90;;;;;;4991349;28;20446;-69
2022/11/11 09:58:48;;;;;;;1999.90;999.90;;;12.50;99.90;;;;;;4973965;28;20443;-70
2022/11/11 10:01:20;;;;;;;1999.90;999.90;;;12.50;99.90;;;;;;4985724;28;20450;-70
2022/11/11 10:03:52;;;;;;;1999.90;999.90;;;12.60;99.90;;;;;;4991227;28;20459;-70
2022/11/11 10:06:22;;;;;;;1999.90;999.90;;;12.90;99.90;;;;;;4990970;28;20449;-72
2022/11/11 10:09:01;;;;;;;1999.90;999.90;;;13.20;99.90;;;;;;4988897;28;20447;-70
2022/11/11 10:11:48;;;;;;;1999.90;999.90;;;13.50;99.90;;;;;;4990864;28;20445;-69
2022/11/11 10:14:16;;;;;;;1999.90;999.90;;;13.60;99.90;;;;;;4990348;28;21011;-71
2022/11/11 10:16:53;;;;;;;1999.90;999.90;;;13.70;99.90;;;;;;4988805;28;20957;-71
2022/11/11 10:19:29;;;;;;;1999.90;999.90;;;13.80;99.90;;;;;;4991147;28;20446;-70
2022/11/11 10:22:00;;;;;;;1999.90;999.90;;;13.90;99.90;;;;;;4990383;28;21022;-69
2022/11/11 10:24:30;;;;;;;1999.90;999.90;;;13.90;99.90;;;;;;4988224;28;20473;-71
2022/11/11 10:27:02;;;;;;;1999.90;999.90;;;14.20;99.90;;;;;;4990760;28;20439;-71
2022/11/11 10:29:39;;;;;;;1999.90;999.90;;;14.70;99.90;;;;;;4990861;28;20482;-70
2022/11/11 10:32:12;;;;;;;1999.90;999.90;;;15.20;99.90;;;;;;4987946;28;20441;-70
2022/11/11 10:34:39;;;;;;;1999.90;999.90;;;15.70;99.90;;;;;;4989709;28;20482;-68
2022/11/11 10:37:18;;;;;;;1999.90;999.90;;;16.00;99.90;;;;;;4990878;28;20462;-71
2022/11/11 10:39:53;;;;;;;1999.90;999.90;;;16.30;99.90;;;;;;4988390;28;20443;-70
2022/11/11 10:42:21;;;;;;;1999.90;999.90;;;16.80;99.90;;;;;;4990410;28;20457;-71
2022/11/11 10:44:48;;;;;;;1999.90;999.90;;;17.10;99.90;;;;;;4992690;28;20439;-71
2022/11/11 10:47:21;;;;;;;1999.90;999.90;;;17.40;99.90;;;;;;5002362;28;20511;-72
2022/11/11 10:49:55;;;;;;;1999.90;999.90;;;17.20;99.90;;;;;;4992599;28;20447;-70
2022/11/11 10:52:25;;;;;;;1999.90;999.90;;;16.90;99.90;;;;;;4990281;28;20964;-70
2022/11/11 10:54:57;;;;;;;1999.90;999.90;;;16.40;99.90;;;;;;4988605;28;20484;-70
2022/11/11 10:57:35;;;;;;;1999.90;999.90;;;16.10;99.90;;;;;;4990131;28;20466;-71
2022/11/11 11:00:06;;;;;;;1999.90;999.90;;;15.80;99.90;;;;;;4990637;28;20439;-71
2022/11/11 11:02:40;;;;;;;1999.90;999.90;;;15.50;99.90;;;;;;4989279;28;20474;-70
2022/11/11 11:05:12;;;;;;;1999.90;999.90;;;15.40;99.90;;;;;;4990664;28;20828;-70
2022/11/11 11:07:44;;;;;;;1999.90;999.90;;;15.30;99.90;;;;;;4990291;28;20447;-70
2022/11/11 11:10:15;;;;;;;1999.90;999.90;;;15.20;99.90;;;;;;4990476;28;20852;-71
2022/11/11 11:12:48;;;;;;;1999.90;999.90;;;15.00;99.90;;;;;;4988901;28;20498;-69
2022/11/11 11:15:18;;;;;;;1999.90;999.90;;;14.90;99.90;;;;;;4990367;28;20491;-70
2022/11/11 11:17:53;;;;;;;1999.90;999.90;;;14.70;99.90;;;;;;4990150;28;20457;-70
2022/11/11 11:20:21;;;;;;;1999.90;999.90;;;14.60;99.90;;;;;;4990427;28;20456;-70
2022/11/11 11:22:51;;;;;;;1999.90;999.90;;;14.50;99.90;;;;;;4989844;28;20462;-70
2022/11/11 11:25:19;;;;;;;1999.90;999.90;;;14.50;99.90;;;;;;4989777;28;20949;-70
2022/11/11 11:27:50;;;;;;;1999.90;999.90;;;14.30;99.90;;;;;;4990464;28;20461;-70
2022/11/11 11:30:20;;;;;;;1999.90;999.90;;;14.30;99.90;;;;;;4990104;28;20975;-68
2022/11/11 11:32:57;;;;;;;1999.90;999.90;;;14.20;99.90;;;;;;4989950;28;20470;-68
2022/11/11 11:35:35;;;;;;;1999.90;999.90;;;14.10;99.90;;;;;;4989509;28;20490;-70
2022/11/11 11:38:03;;;;;;;1999.90;999.90;;;14.00;99.90;;;;;;4987783;28;20461;-69
2022/11/11 11:40:46;;;;;;;1999.90;999.90;;;13.90;99.90;;;;;;4988403;28;20453;-68
2022/11/11 11:43:36;;;;;;;1999.90;999.90;;;13.80;99.90;;;;;;4988814;28;20961;-69
2022/11/11 11:46:14;;;;;;;1999.90;999.90;;;13.70;99.90;;;;;;4981709;28;20455;-70
2022/11/11 11:48:59;;;;;;;1999.90;999.90;;;13.60;99.90;;;;;;4992522;28;20443;-68
2022/11/11 11:51:35;;;;;;;1999.90;999.90;;;13.50;99.90;;;;;;4987677;28;21008;-69
2022/11/11 11:54:42;;;;;;;1999.90;999.90;;;13.50;99.90;;;;;;4989852;28;20504;-71
2022/11/11 11:57:24;;;;;;;1999.90;999.90;;;13.40;99.90;;;;;;4992614;28;20451;-70
2022/11/11 12:00:00;;;;;;;1999.90;999.90;;;13.40;99.90;;;;;;4989548;28;20570;-69
2022/11/11 12:02:51;;;;;;;1999.90;999.90;;;13.60;99.90;;;;;;4992452;28;20438;-66
2022/11/11 12:05:26;;;;;;;1999.90;999.90;;;13.70;99.90;;;;;;4991604;28;20629;-70
2022/11/11 12:08:06;;;;;;;1999.90;999.90;;;13.80;99.90;;;;;;4992714;28;20439;-69
2022/11/11 12:10:45;;;;;;;1999.90;999.90;;;14.00;99.90;;;;;;4977710;28;20453;-68
2022/11/11 12:13:25;;;;;;;1999.90;999.90;;;14.10;99.90;;;;;;4992487;28;20470;-69
2022/11/11 12:16:00;;;;;;;1999.90;999.90;;;14.30;99.90;;;;;;4993333;28;20438;-72
2022/11/11 12:18:41;;;;;;;1999.90;999.90;;;14.40;99.90;;;;;;4993135;28;20446;-69
2022/11/11 12:21:11;;;;;;;1999.90;999.90;;;14.50;99.90;;;;;;4992846;28;21128;-69
2022/11/11 12:23:58;;;;;;;1999.90;999.90;;;14.50;99.90;;;;;;4997083;28;20501;-70
2022/11/11 12:26:33;;;;;;;1999.90;999.90;;;14.60;99.90;;;;;;4992848;28;20451;-69
2022/11/11 12:29:23;;;;;;;1999.90;999.90;;;14.70;99.90;;;;;;4993329;28;20446;-70
2022/11/11 12:32:07;;;;;;;1999.90;999.90;;;14.60;99.90;;;;;;4989688;28;20474;-70
2022/11/11 12:34:53;;;;;;;1999.90;999.90;;;14.60;99.90;;;;;;4985934;28;20498;-70
2022/11/11 12:37:30;;;;;;;1999.90;999.90;;;14.50;99.90;;;;;;4991252;28;20446;-71
2022/11/11 12:40:14;;;;;;;1999.90;999.90;;;14.50;99.90;;;;;;4992336;28;20442;-70
2022/11/11 12:42:58;;;;;;;1999.90;999.90;;;14.50;99.90;;;;;;4990249;28;20470;-71
2022/11/11 12:45:30;;;;;;;1999.90;999.90;;;14.50;99.90;;;;;;4989577;28;20451;-69
2022/11/11 12:48:12;;;;;;;1999.90;999.90;;;14.50;99.90;;;;;;4991962;28;20447;-69
2022/11/11 12:50:46;;;;;;;1999.90;999.90;;;14.50;99.90;;;;;;4987426;28;20454;-71
2022/11/11 12:53:22;;;;;;;1999.90;999.90;;;14.60;99.90;;;;;;4995134;28;20501;-69
2022/11/11 12:55:58;;;;;;;1999.90;999.90;;;14.60;99.90;;;;;;4996546;28;21045;-70
2022/11/11 12:58:34;;;;;;;1999.90;999.90;;;14.60;99.90;;;;;;4992356;28;20902;-69
2022/11/11 13:01:15;;;;;;;1999.90;999.90;;;14.70;99.90;;;;;;4988547;28;20514;-68
2022/11/11 13:03:59;;;;;;;1999.90;999.90;;;14.70;99.90;;;;;;4989462;28;21205;-69
2022/11/11 13:06:51;;;;;;;1999.90;999.90;;;14.70;99.90;;;;;;4986726;28;20525;-71
2022/11/11 13:09:43;;;;;;;1999.90;999.90;;;14.70;99.90;;;;;;4982786;28;21124;-70
2022/11/11 13:12:17;;;;;;;1999.90;999.90;;;14.70;99.90;;;;;;4988143;28;20977;-69
2022/11/11 13:14:56;;;;;;;1999.90;999.90;;;14.80;99.90;;;;;;4990789;28;20482;-71
2022/11/11 13:17:23;;;;;;;1999.90;999.90;;;14.90;99.90;;;;;;4990779;28;20462;-70
2022/11/11 13:19:55;;;;;;;1999.90;999.90;;;15.00;99.90;;;;;;4988431;28;20949;-69
2022/11/11 13:22:24;;;;;;;1999.90;999.90;;;15.10;99.90;;;;;;4990102;28;20449;-69
2022/11/11 13:24:53;;;;;;;1999.90;999.90;;;15.20;99.90;;;;;;4991621;28;20486;-69
2022/11/11 13:27:28;;;;;;;1999.90;999.90;;;15.30;99.90;;;;;;4988220;28;20454;-68
2022/11/11 13:30:31;;;;;;;1999.90;999.90;;;15.40;99.90;;;;;;4989594;28;20541;-69
2022/11/11 13:33:03;;;;;;;1999.90;999.90;;;15.40;99.90;;;;;;4969464;28;20553;-68
2022/11/11 13:35:35;;;;;;;1999.90;999.90;;;15.50;99.90;;;;;;4988445;28;21039;-69
2022/11/11 13:38:03;;;;;;;1999.90;999.90;;;15.50;99.90;;;;;;4987365;28;20481;-68